Time;durP1;ratioP1;P1;durP2;ratioP2;P2;SDS_P1;SDS_P2;PMS_P1;PMS_P2;Temp;Humidity;BMP_temperature;BMP_pressure;BME280_temperature;BME280_humidity;BME280_pressure;Samples;Min_cycle;Max_cycle;Signal;HPM_P1;HPM_P2
2023/12/25 00:00:44;;;;;;;11.05;2.40;;;11.30;99.90;;;;;;5071474;28;20047;-93
2023/12/25 00:03:10;;;;;;;8.63;2.40;;;11.20;99.90;;;;;;5049124;28;20315;-93
2023/12/25 00:05:36;;;;;;;10.43;2.40;;;11.30;99.90;;;;;;5036954;28;20063;-92
2023/12/25 00:08:01;;;;;;;9.50;2.10;;;11.30;99.90;;;;;;5056250;28;20031;-89
2023/12/25 00:10:27;;;;;;;10.27;2.42;;;11.40;99.90;;;;;;5050625;28;20043;-91
2023/12/25 00:12:53;;;;;;;8.10;2.13;;;11.20;99.90;;;;;;5052882;28;20106;-92
2023/12/25 00:15:19;;;;;;;12.70;2.58;;;11.40;99.90;;;;;;5052750;28;20103;-91
2023/12/25 00:17:44;;;;;;;12.48;3.03;;;11.40;99.90;;;;;;5052660;28;20031;-92
2023/12/25 00:20:10;;;;;;;11.60;2.45;;;11.30;99.90;;;;;;5050595;28;20043;-92
2023/12/25 00:22:36;;;;;;;13.38;2.92;;;11.30;99.90;;;;;;5058790;28;20051;-90
2023/12/25 00:25:02;;;;;;;12.55;2.70;;;11.20;99.90;;;;;;5052937;28;20081;-91
2023/12/25 00:27:28;;;;;;;7.97;2.20;;;11.40;99.90;;;;;;5069027;28;20101;-91
2023/12/25 00:29:54;;;;;;;9.13;2.25;;;11.20;99.90;;;;;;5099647;28;20074;-92
2023/12/25 00:32:20;;;;;;;10.85;2.63;;;11.30;99.90;;;;;;5069421;28;20032;-92
2023/12/25 00:34:45;;;;;;;9.93;2.20;;;11.30;99.90;;;;;;5069435;28;20050;-91
2023/12/25 00:37:11;;;;;;;12.05;2.50;;;11.20;99.90;;;;;;5072436;28;20245;-91
2023/12/25 00:39:37;;;;;;;9.23;2.70;;;11.20;99.90;;;;;;5062106;28;20044;-90
2023/12/25 00:42:03;;;;;;;12.40;2.63;;;11.20;99.90;;;;;;5048548;28;20068;-91
2023/12/25 00:44:29;;;;;;;10.85;2.10;;;11.40;99.90;;;;;;5049308;28;20025;-93
2023/12/25 00:46:54;;;;;;;9.68;2.47;;;11.40;99.90;;;;;;5065573;28;20074;-91
2023/12/25 00:49:20;;;;;;;11.27;2.70;;;11.30;99.90;;;;;;5065524;28;20028;-91
2023/12/25 00:51:47;;;;;;;9.35;2.20;;;11.30;99.90;;;;;;5081916;28;20032;-90
2023/12/25 00:54:13;;;;;;;10.82;2.88;;;11.20;99.90;;;;;;5078054;28;20113;-92
2023/12/25 00:56:39;;;;;;;9.57;2.30;;;11.20;99.90;;;;;;5082379;28;20037;-92
2023/12/25 00:59:04;;;;;;;8.85;2.10;;;11.30;99.90;;;;;;5052452;28;20028;-92
2023/12/25 01:01:30;;;;;;;11.60;2.38;;;11.20;99.90;;;;;;5053763;28;20033;-92
2023/12/25 01:03:56;;;;;;;11.77;2.75;;;11.30;99.90;;;;;;5049132;28;20028;-92
2023/12/25 01:06:22;;;;;;;10.30;2.30;;;11.10;99.90;;;;;;5082329;28;20038;-91
2023/12/25 01:08:47;;;;;;;8.57;2.30;;;11.20;99.90;;;;;;5045477;28;20029;-90
2023/12/25 01:11:14;;;;;;;11.00;2.20;;;11.20;99.90;;;;;;5025329;28;20274;-92
2023/12/25 01:13:40;;;;;;;10.15;2.00;;;11.20;99.90;;;;;;5065704;28;20029;-92
2023/12/25 01:16:06;;;;;;;7.85;1.90;;;11.10;99.90;;;;;;5065507;28;20028;-92
2023/12/25 01:18:31;;;;;;;9.95;2.47;;;11.20;99.90;;;;;;5032609;28;20020;-90
2023/12/25 01:20:57;;;;;;;8.40;2.05;;;11.20;99.90;;;;;;5035205;28;20274;-91
2023/12/25 01:23:23;;;;;;;9.38;1.90;;;11.10;99.90;;;;;;5051375;28;20238;-92
2023/12/25 01:25:48;;;;;;;8.57;1.83;;;11.00;99.90;;;;;;5057241;28;20443;-91
2023/12/25 01:28:14;;;;;;;8.88;2.25;;;11.10;99.90;;;;;;5055787;28;20064;-91
2023/12/25 01:30:40;;;;;;;9.00;1.98;;;11.10;99.90;;;;;;5068777;28;20031;-92
2023/12/25 01:33:06;;;;;;;9.30;2.00;;;11.00;99.90;;;;;;5066233;28;20108;-91
2023/12/25 01:35:31;;;;;;;7.70;1.70;;;11.00;99.90;;;;;;5042427;28;20040;-91
2023/12/25 01:37:57;;;;;;;9.00;2.10;;;11.00;99.90;;;;;;5052333;28;20032;-90
2023/12/25 01:40:23;;;;;;;7.93;2.38;;;11.00;99.90;;;;;;5052335;28;20058;-92
2023/12/25 01:42:48;;;;;;;10.52;2.47;;;11.00;99.90;;;;;;5068723;28;20036;-92
2023/12/25 01:45:14;;;;;;;10.05;2.00;;;10.90;99.90;;;;;;5052531;28;20062;-91
2023/12/25 01:47:40;;;;;;;8.90;1.80;;;10.90;99.90;;;;;;5038868;28;20072;-92
2023/12/25 01:50:06;;;;;;;6.68;1.80;;;10.90;99.90;;;;;;5045339;28;20148;-91
2023/12/25 01:52:32;;;;;;;7.05;1.92;;;10.80;99.90;;;;;;5048890;28;20032;-91
2023/12/25 01:55:01;;;;;;;10.00;2.20;;;10.90;99.90;;;;;;5052834;28;20076;-90
2023/12/25 01:57:31;;;;;;;11.57;2.00;;;10.80;99.90;;;;;;5069006;28;20040;-93
2023/12/25 01:59:57;;;;;;;6.28;1.73;;;10.80;99.90;;;;;;5068807;28;20031;-92
2023/12/25 02:02:23;;;;;;;10.35;2.33;;;10.70;99.90;;;;;;5069287;28;21065;-92
2023/12/25 02:04:49;;;;;;;9.68;2.30;;;10.70;99.90;;;;;;5069552;28;20040;-92
2023/12/25 02:07:15;;;;;;;9.10;2.47;;;10.70;99.90;;;;;;5034699;28;20032;-91
2023/12/25 02:09:41;;;;;;;9.60;2.35;;;10.70;99.90;;;;;;5085337;28;20032;-91
2023/12/25 02:12:06;;;;;;;9.73;1.92;;;10.70;99.90;;;;;;5070280;28;20044;-92
2023/12/25 02:14:32;;;;;;;7.88;2.33;;;10.70;99.90;;;;;;5050860;28;20032;-92
2023/12/25 02:16:59;;;;;;;9.50;2.17;;;10.70;99.90;;;;;;5085193;28;20044;-92
2023/12/25 02:19:34;;;;;;;9.05;2.00;;;10.60;99.90;;;;;;5051466;28;20095;-92
2023/12/25 02:22:00;;;;;;;12.48;2.22;;;10.60;99.90;;;;;;5067283;28;20071;-90
2023/12/25 02:24:35;;;;;;;10.10;2.22;;;10.60;99.90;;;;;;5099010;28;20024;-92
2023/12/25 02:27:01;;;;;;;10.60;2.15;;;10.50;99.90;;;;;;5082880;28;20194;-92
2023/12/25 02:29:27;;;;;;;10.52;2.10;;;10.50;99.90;;;;;;5072051;28;20025;-92
2023/12/25 02:31:52;;;;;;;10.48;2.10;;;10.50;99.90;;;;;;5051378;28;20155;-90
2023/12/25 02:34:18;;;;;;;10.75;2.30;;;10.50;99.90;;;;;;5047120;28;20058;-92
2023/12/25 02:36:44;;;;;;;9.90;2.33;;;10.50;99.90;;;;;;5044921;28;20036;-93
2023/12/25 02:39:09;;;;;;;8.02;2.20;;;10.50;99.90;;;;;;5078990;28;20028;-92
2023/12/25 02:41:35;;;;;;;11.55;2.50;;;10.50;99.90;;;;;;5049870;28;20066;-92
2023/12/25 02:44:02;;;;;;;11.15;2.33;;;10.40;99.90;;;;;;5067405;28;20064;-93
2023/12/25 02:46:28;;;;;;;9.85;2.00;;;10.50;99.90;;;;;;5052608;28;20047;-92
2023/12/25 02:48:54;;;;;;;8.13;2.05;;;10.50;99.90;;;;;;5071607;28;20266;-92
2023/12/25 02:51:20;;;;;;;8.68;2.17;;;10.50;99.90;;;;;;5075748;28;20039;-93
2023/12/25 02:53:45;;;;;;;10.02;2.25;;;10.50;99.90;;;;;;5069333;28;20055;-91
2023/12/25 02:56:11;;;;;;;11.23;2.60;;;10.50;99.90;;;;;;5067319;28;20039;-92
2023/12/25 02:58:37;;;;;;;11.77;2.95;;;10.50;99.90;;;;;;5076339;28;20024;-92
2023/12/25 03:01:02;;;;;;;10.73;2.67;;;10.50;99.90;;;;;;5048504;28;20028;-93
2023/12/25 03:03:28;;;;;;;11.85;2.17;;;10.50;99.90;;;;;;5067953;28;20330;-92
2023/12/25 03:05:54;;;;;;;8.82;2.30;;;10.50;99.90;;;;;;5047900;28;20036;-92
2023/12/25 03:08:20;;;;;;;11.18;2.25;;;10.50;99.90;;;;;;5072173;28;20048;-93
2023/12/25 03:10:45;;;;;;;11.15;2.38;;;10.50;99.90;;;;;;5065744;28;20035;-92
2023/12/25 03:13:11;;;;;;;10.23;2.42;;;10.60;99.90;;;;;;5071319;28;20069;-93
2023/12/25 03:15:37;;;;;;;11.88;2.13;;;10.50;99.90;;;;;;5063927;28;20028;-93
2023/12/25 03:18:03;;;;;;;8.02;2.05;;;10.50;99.90;;;;;;5056475;28;20091;-92
2023/12/25 03:20:29;;;;;;;10.98;2.35;;;10.60;99.90;;;;;;5054857;28;20040;-93
2023/12/25 03:22:55;;;;;;;11.00;2.65;;;10.50;99.90;;;;;;5049689;28;20058;-92
2023/12/25 03:25:20;;;;;;;8.80;2.50;;;10.70;99.90;;;;;;5051074;28;20184;-92
2023/12/25 03:27:46;;;;;;;9.32;2.20;;;10.50;99.90;;;;;;5037165;28;20055;-92
2023/12/25 03:30:12;;;;;;;11.23;2.50;;;10.60;99.90;;;;;;5084544;28;20052;-92
2023/12/25 03:32:39;;;;;;;11.50;2.13;;;10.70;99.90;;;;;;5058106;28;20037;-92
2023/12/25 03:35:05;;;;;;;9.75;2.42;;;10.50;99.90;;;;;;5040110;28;20048;-91
2023/12/25 03:37:31;;;;;;;12.10;2.42;;;10.60;99.90;;;;;;5056823;28;20028;-91
2023/12/25 03:39:57;;;;;;;10.90;2.30;;;10.60;99.90;;;;;;5087004;28;20052;-91
2023/12/25 03:42:24;;;;;;;12.40;2.45;;;10.60;99.90;;;;;;5053675;28;20054;-92
2023/12/25 03:44:49;;;;;;;11.70;2.17;;;10.50;99.90;;;;;;5053292;28;20047;-92
2023/12/25 03:47:15;;;;;;;10.70;2.10;;;10.60;99.90;;;;;;5039965;28;20032;-93
2023/12/25 03:49:41;;;;;;;11.05;2.30;;;10.60;99.90;;;;;;5084862;28;20028;-92
2023/12/25 03:52:07;;;;;;;10.60;2.47;;;10.50;99.90;;;;;;5038209;28;20040;-92
2023/12/25 03:54:32;;;;;;;10.20;2.17;;;10.60;99.90;;;;;;5078523;28;20098;-91
2023/12/25 03:56:58;;;;;;;10.45;2.45;;;10.50;99.90;;;;;;5053468;28;20208;-91
2023/12/25 03:59:24;;;;;;;8.48;2.20;;;10.50;99.90;;;;;;5049781;28;20060;-92
2023/12/25 04:01:50;;;;;;;9.05;2.35;;;10.40;99.90;;;;;;5082917;28;20028;-93
2023/12/25 04:04:15;;;;;;;9.50;2.22;;;10.50;99.90;;;;;;5057937;28;20032;-92
2023/12/25 04:06:41;;;;;;;10.77;2.40;;;10.40;99.90;;;;;;5070172;28;20081;-93
2023/12/25 04:09:07;;;;;;;7.45;2.25;;;10.50;99.90;;;;;;5053265;28;20028;-93
2023/12/25 04:11:32;;;;;;;11.00;2.78;;;10.50;99.90;;;;;;5053086;28;20088;-93
2023/12/25 04:13:58;;;;;;;10.48;2.30;;;10.50;99.90;;;;;;5073498;28;20282;-92
2023/12/25 04:16:29;;;;;;;8.52;2.45;;;10.40;99.90;;;;;;5039807;28;20160;-93
2023/12/25 04:18:55;;;;;;;10.35;2.20;;;10.50;99.90;;;;;;5070182;28;20024;-94
2023/12/25 04:21:21;;;;;;;10.43;2.45;;;10.40;99.90;;;;;;5070623;28;20027;-91
2023/12/25 04:23:48;;;;;;;12.05;2.38;;;10.50;99.90;;;;;;5087357;28;20028;-91
2023/12/25 04:26:14;;;;;;;11.70;2.50;;;10.50;99.90;;;;;;5053096;28;20066;-93
2023/12/25 04:28:40;;;;;;;10.23;2.30;;;10.40;99.90;;;;;;5052680;28;20138;-93
2023/12/25 04:31:05;;;;;;;10.60;2.20;;;10.50;99.90;;;;;;5069451;28;20095;-92
2023/12/25 04:33:31;;;;;;;8.65;2.15;;;10.50;99.90;;;;;;5071195;28;20030;-93
2023/12/25 04:35:57;;;;;;;11.10;2.38;;;10.50;99.90;;;;;;5063824;28;20032;-94
2023/12/25 04:38:22;;;;;;;7.80;2.33;;;10.50;99.90;;;;;;5048571;28;20050;-92
2023/12/25 04:40:50;;;;;;;9.95;2.33;;;10.40;99.90;;;;;;5040029;28;20041;-93
2023/12/25 04:43:16;;;;;;;11.07;2.50;;;10.50;99.90;;;;;;5082649;28;20060;-92
2023/12/25 04:45:42;;;;;;;8.00;2.20;;;10.40;99.90;;;;;;5033254;28;20036;-93
2023/12/25 04:48:08;;;;;;;11.50;2.60;;;10.50;99.90;;;;;;5032947;28;20060;-92
2023/12/25 04:50:33;;;;;;;12.10;2.47;;;10.50;99.90;;;;;;5032689;28;20032;-92
2023/12/25 04:52:59;;;;;;;11.60;2.30;;;10.40;99.90;;;;;;5065942;28;20039;-93
2023/12/25 04:55:28;;;;;;;9.60;2.53;;;10.50;99.90;;;;;;5064910;28;20052;-92
2023/12/25 04:57:54;;;;;;;11.43;2.10;;;10.50;99.90;;;;;;5065235;28;20032;-92
2023/12/25 05:00:20;;;;;;;9.85;1.77;;;10.30;99.90;;;;;;5070597;28;20040;-92
2023/12/25 05:02:46;;;;;;;11.80;2.72;;;10.30;99.90;;;;;;5065701;28;20108;-92
2023/12/25 05:05:12;;;;;;;10.23;2.40;;;10.30;99.90;;;;;;5032646;28;20032;-91
2023/12/25 05:07:37;;;;;;;8.50;2.50;;;10.40;99.90;;;;;;5076088;28;20032;-92
2023/12/25 05:10:04;;;;;;;9.43;2.10;;;10.40;99.90;;;;;;5053718;28;20169;-92
2023/12/25 05:12:29;;;;;;;8.02;2.08;;;10.30;99.90;;;;;;5048498;28;20040;-93
2023/12/25 05:14:55;;;;;;;7.75;2.38;;;10.30;99.90;;;;;;5032481;28;20092;-91
2023/12/25 05:17:21;;;;;;;10.57;2.60;;;10.20;99.90;;;;;;5032348;28;20048;-91
2023/12/25 05:19:47;;;;;;;12.75;2.30;;;10.10;99.90;;;;;;5048275;28;20158;-92
2023/12/25 05:22:13;;;;;;;7.63;2.05;;;10.10;99.90;;;;;;5055131;28;20104;-93
2023/12/25 05:24:39;;;;;;;8.93;1.92;;;10.20;99.90;;;;;;5032820;28;20244;-92
2023/12/25 05:27:05;;;;;;;9.73;2.40;;;10.20;99.90;;;;;;5065587;28;20033;-92
2023/12/25 05:29:30;;;;;;;10.15;2.50;;;10.10;99.90;;;;;;5048860;28;20072;-93
2023/12/25 05:31:57;;;;;;;12.30;3.00;;;10.10;99.90;;;;;;5066477;28;20182;-93
2023/12/25 05:34:23;;;;;;;9.65;2.22;;;10.20;99.90;;;;;;5069330;28;20024;-92
2023/12/25 05:36:49;;;;;;;10.65;2.60;;;10.10;99.90;;;;;;5044116;28;20347;-91
2023/12/25 05:39:15;;;;;;;11.57;2.58;;;10.00;99.90;;;;;;5047708;28;20377;-93
2023/12/25 05:41:41;;;;;;;9.02;2.25;;;10.00;99.90;;;;;;5040474;28;20063;-93
2023/12/25 05:44:07;;;;;;;9.45;2.20;;;9.90;99.90;;;;;;5062262;28;20100;-93
2023/12/25 05:46:33;;;;;;;10.98;2.47;;;10.00;99.90;;;;;;5052883;28;20059;-93
2023/12/25 05:48:58;;;;;;;7.93;2.13;;;10.00;99.90;;;;;;5055688;28;20021;-93
2023/12/25 05:51:24;;;;;;;9.00;2.55;;;9.90;99.90;;;;;;5030818;28;20326;-92
2023/12/25 05:53:50;;;;;;;11.60;2.60;;;9.90;99.90;;;;;;5048475;28;20127;-93
2023/12/25 05:56:16;;;;;;;9.95;2.33;;;10.00;99.90;;;;;;5049581;28;20017;-93
2023/12/25 05:58:41;;;;;;;9.63;2.10;;;9.90;99.90;;;;;;5029925;28;20033;-93
2023/12/25 06:01:08;;;;;;;9.07;2.25;;;9.90;99.90;;;;;;5050467;28;20032;-93
2023/12/25 06:03:35;;;;;;;8.85;2.20;;;9.90;99.90;;;;;;5062070;28;20033;-92
2023/12/25 06:06:01;;;;;;;9.95;2.35;;;9.90;99.90;;;;;;5063175;28;20202;-92
2023/12/25 06:08:26;;;;;;;7.25;1.90;;;9.80;99.90;;;;;;5052334;28;20036;-93
2023/12/25 06:10:52;;;;;;;10.70;2.88;;;9.80;99.90;;;;;;5068798;28;20040;-93
2023/12/25 06:13:18;;;;;;;9.30;2.35;;;9.80;99.90;;;;;;5035940;28;20134;-92
2023/12/25 06:15:44;;;;;;;9.43;2.30;;;9.90;99.90;;;;;;5068499;28;20021;-93
2023/12/25 06:18:09;;;;;;;13.75;2.88;;;9.80;99.90;;;;;;5051738;28;20178;-93
2023/12/25 06:20:35;;;;;;;9.52;2.28;;;9.70;99.90;;;;;;5065797;28;20055;-93
2023/12/25 06:23:01;;;;;;;9.80;2.40;;;9.80;99.90;;;;;;5048698;28;20060;-93
2023/12/25 06:25:26;;;;;;;8.13;2.20;;;9.70;99.90;;;;;;5062678;28;20032;-93
2023/12/25 06:27:52;;;;;;;11.88;2.47;;;9.80;99.90;;;;;;5068241;28;20037;-92
2023/12/25 06:30:18;;;;;;;10.40;2.47;;;9.70;99.90;;;;;;5051633;28;20123;-93
2023/12/25 06:32:44;;;;;;;10.15;2.08;;;10.90;99.90;;;;;;5067897;28;20036;-91
2023/12/25 06:35:09;;;;;;;8.90;2.67;;;9.70;99.90;;;;;;5051780;28;20097;-92
2023/12/25 06:37:35;;;;;;;10.02;2.20;;;9.70;99.90;;;;;;5051479;28;20033;-92
2023/12/25 06:40:01;;;;;;;12.85;2.42;;;9.70;99.90;;;;;;5051271;28;20048;-92
2023/12/25 06:42:27;;;;;;;9.30;2.38;;;9.70;99.90;;;;;;5069242;28;20228;-92
2023/12/25 06:44:53;;;;;;;9.27;2.17;;;9.70;99.90;;;;;;5040501;28;20021;-93
2023/12/25 06:47:18;;;;;;;10.15;2.00;;;9.70;99.90;;;;;;5065451;28;20316;-93
2023/12/25 06:49:44;;;;;;;12.77;2.35;;;9.60;99.90;;;;;;5051737;28;20069;-93
2023/12/25 06:52:10;;;;;;;11.32;2.63;;;9.70;99.90;;;;;;5049313;28;20032;-92
2023/12/25 06:54:35;;;;;;;9.23;2.20;;;9.70;99.90;;;;;;5068253;28;20025;-92
2023/12/25 06:57:02;;;;;;;10.73;2.50;;;9.60;99.90;;;;;;5041851;28;20060;-92
2023/12/25 06:59:27;;;;;;;8.50;2.35;;;9.60;99.90;;;;;;5044781;28;20036;-91
2023/12/25 07:01:54;;;;;;;13.30;2.80;;;9.70;99.90;;;;;;5051803;28;20052;-92
2023/12/25 07:04:20;;;;;;;13.90;2.42;;;9.70;99.90;;;;;;5026865;28;20036;-93
2023/12/25 07:06:46;;;;;;;10.52;2.40;;;9.60;99.90;;;;;;5048812;28;20096;-93
2023/12/25 07:09:14;;;;;;;11.90;2.50;;;9.60;99.90;;;;;;5061091;28;20263;-92
2023/12/25 07:11:41;;;;;;;11.13;2.78;;;9.60;99.90;;;;;;5055075;28;20093;-92
2023/12/25 07:14:08;;;;;;;10.90;2.60;;;9.60;99.90;;;;;;5067477;28;20033;-92
2023/12/25 07:16:34;;;;;;;12.60;3.03;;;9.70;99.90;;;;;;5071046;28;20037;-93
2023/12/25 07:19:00;;;;;;;12.13;2.25;;;9.70;99.90;;;;;;5049171;28;20169;-92
2023/12/25 07:21:25;;;;;;;8.40;2.10;;;9.60;99.90;;;;;;5080267;28;20021;-92
2023/12/25 07:23:52;;;;;;;9.25;2.10;;;9.60;99.90;;;;;;5052695;28;20051;-92
2023/12/25 07:26:19;;;;;;;11.45;2.33;;;9.70;99.90;;;;;;5067101;28;20082;-93
2023/12/25 07:28:45;;;;;;;9.73;2.38;;;9.70;99.90;;;;;;5047261;28;20029;-92
2023/12/25 07:31:11;;;;;;;11.65;2.35;;;9.70;99.90;;;;;;5045648;28;20040;-91
2023/12/25 07:33:37;;;;;;;11.48;2.63;;;9.60;99.90;;;;;;5066585;28;20398;-92
2023/12/25 07:36:04;;;;;;;10.65;2.40;;;9.70;99.90;;;;;;5084592;28;20037;-93
2023/12/25 07:38:30;;;;;;;10.48;2.33;;;9.70;99.90;;;;;;5066472;28;20028;-93
2023/12/25 07:40:57;;;;;;;12.38;2.10;;;9.80;99.90;;;;;;5050436;28;20048;-92
2023/12/25 07:43:24;;;;;;;7.43;1.98;;;9.70;99.90;;;;;;5057364;28;20064;-93
2023/12/25 07:45:50;;;;;;;10.43;2.28;;;9.80;99.90;;;;;;5086142;28;20027;-92
2023/12/25 07:48:16;;;;;;;12.70;2.95;;;9.70;99.90;;;;;;5072739;28;20084;-92
2023/12/25 07:50:42;;;;;;;13.48;2.75;;;9.80;99.90;;;;;;5061660;28;20072;-93
2023/12/25 07:53:08;;;;;;;10.43;2.38;;;9.70;99.90;;;;;;5061298;28;20339;-93
2023/12/25 07:55:37;;;;;;;12.40;2.40;;;9.80;99.90;;;;;;5045716;28;20036;-94
2023/12/25 07:58:02;;;;;;;11.23;2.58;;;9.80;99.90;;;;;;5042858;28;20228;-94
2023/12/25 08:00:28;;;;;;;9.00;2.30;;;9.70;99.90;;;;;;5047064;28;20047;-93
2023/12/25 08:02:55;;;;;;;13.70;2.80;;;9.70;99.90;;;;;;5063762;28;20163;-93
2023/12/25 08:05:20;;;;;;;8.85;2.35;;;9.70;99.90;;;;;;5063158;28;20029;-93
2023/12/25 08:07:47;;;;;;;11.98;2.47;;;9.80;99.90;;;;;;5057886;28;20092;-94
2023/12/25 08:10:13;;;;;;;11.93;2.40;;;9.80;99.90;;;;;;5062394;28;20033;-94
2023/12/25 08:12:43;;;;;;;10.60;2.95;;;9.80;99.90;;;;;;5063738;28;20054;-93
2023/12/25 08:15:12;;;;;;;10.27;2.45;;;9.60;99.90;;;;;;5076283;28;20345;-94
2023/12/25 08:17:39;;;;;;;10.50;2.75;;;9.70;99.90;;;;;;5077496;28;20033;-94
2023/12/25 08:20:06;;;;;;;11.43;2.28;;;9.60;99.90;;;;;;5061489;28;20017;-93
2023/12/25 08:22:32;;;;;;;11.52;2.92;;;9.60;99.90;;;;;;5049787;28;20032;-94
2023/12/25 08:24:59;;;;;;;14.00;2.67;;;9.60;99.90;;;;;;5060399;28;20035;-93
2023/12/25 08:27:24;;;;;;;10.65;2.47;;;9.50;99.90;;;;;;5070588;28;20042;-93
2023/12/25 08:29:50;;;;;;;13.25;2.40;;;9.50;99.90;;;;;;5048036;28;20052;-94
2023/12/25 08:32:16;;;;;;;10.75;2.50;;;9.50;99.90;;;;;;5064340;28;20032;-94
2023/12/25 08:34:42;;;;;;;7.90;1.80;;;9.40;99.90;;;;;;5077490;28;20021;-94
2023/12/25 08:37:08;;;;;;;12.40;2.45;;;9.40;99.90;;;;;;5047486;28;20174;-92
2023/12/25 08:39:34;;;;;;;8.85;2.05;;;9.40;99.90;;;;;;5063647;28;20041;-93
2023/12/25 08:42:03;;;;;;;9.10;2.67;;;9.30;99.90;;;;;;5043873;28;20237;-93
2023/12/25 08:44:28;;;;;;;9.02;2.25;;;9.40;99.90;;;;;;5047498;28;20107;-92
2023/12/25 08:46:54;;;;;;;7.93;2.03;;;9.40;99.90;;;;;;5064542;28;20032;-93
2023/12/25 08:49:20;;;;;;;8.25;1.95;;;9.30;99.90;;;;;;5062037;28;20052;-93
2023/12/25 08:51:46;;;;;;;7.85;1.83;;;9.20;99.90;;;;;;5062854;28;20035;-91
2023/12/25 08:54:11;;;;;;;8.50;2.10;;;9.30;99.90;;;;;;5028749;28;20064;-92
2023/12/25 08:56:37;;;;;;;11.18;2.10;;;9.30;99.90;;;;;;5060897;28;20459;-93
2023/12/25 08:59:05;;;;;;;9.93;2.45;;;9.20;99.90;;;;;;5046397;28;20054;-94
2023/12/25 09:01:32;;;;;;;10.52;2.10;;;9.20;99.90;;;;;;5057592;28;20036;-94
2023/12/25 09:03:57;;;;;;;11.77;2.38;;;9.20;99.90;;;;;;5062078;28;20025;-92
2023/12/25 09:06:24;;;;;;;7.25;2.05;;;9.20;99.90;;;;;;5058776;28;20032;-93
2023/12/25 09:08:51;;;;;;;9.48;2.15;;;9.20;99.90;;;;;;5060484;28;20037;-94
2023/12/25 09:11:17;;;;;;;10.35;2.00;;;9.20;99.90;;;;;;5042851;28;20187;-94
2023/12/25 09:13:43;;;;;;;8.55;2.25;;;9.30;99.90;;;;;;5047661;28;20044;-94
2023/12/25 09:16:09;;;;;;;9.57;1.95;;;9.20;99.90;;;;;;5074985;28;20103;-92
2023/12/25 09:18:35;;;;;;;8.88;2.22;;;9.20;99.90;;;;;;5043442;28;20067;-94
2023/12/25 09:21:01;;;;;;;7.85;1.80;;;9.20;99.90;;;;;;5042725;28;20040;-93
2023/12/25 09:23:27;;;;;;;9.00;2.10;;;9.20;99.90;;;;;;5042234;28;20257;-94
2023/12/25 09:25:53;;;;;;;8.38;1.88;;;9.20;99.90;;;;;;5025261;28;20032;-91
2023/12/25 09:28:18;;;;;;;10.85;2.70;;;9.20;99.90;;;;;;5040654;28;20051;-93
2023/12/25 09:30:44;;;;;;;9.70;2.00;;;9.20;99.90;;;;;;5060522;28;20382;-94
2023/12/25 09:33:10;;;;;;;9.93;2.03;;;9.20;99.90;;;;;;5044595;28;20070;-94
2023/12/25 09:35:36;;;;;;;6.90;1.90;;;9.20;99.90;;;;;;5042414;28;20025;-93
2023/12/25 09:38:02;;;;;;;8.02;2.60;;;9.30;99.90;;;;;;5031125;28;20040;-94
2023/12/25 09:40:29;;;;;;;8.45;1.88;;;9.30;99.90;;;;;;5062845;28;20025;-93
2023/12/25 09:42:55;;;;;;;12.68;2.50;;;9.30;99.90;;;;;;5050757;28;20302;-94
2023/12/25 09:45:22;;;;;;;10.73;2.72;;;9.30;99.90;;;;;;5037608;28;20048;-93
2023/12/25 09:47:49;;;;;;;8.10;2.45;;;9.40;99.90;;;;;;5049620;28;20071;-93
2023/12/25 09:50:17;;;;;;;6.78;1.90;;;9.30;99.90;;;;;;5081826;28;20060;-94
2023/12/25 09:52:42;;;;;;;7.53;1.90;;;9.40;99.90;;;;;;5069499;28;20029;-92
2023/12/25 09:55:08;;;;;;;8.90;2.35;;;9.30;99.90;;;;;;5053062;28;20282;-94
2023/12/25 09:57:36;;;;;;;9.63;2.45;;;9.30;99.90;;;;;;5051990;28;20033;-94
2023/12/25 10:00:04;;;;;;;10.35;2.20;;;9.30;99.90;;;;;;5068109;28;20035;-94
2023/12/25 10:02:32;;;;;;;9.40;2.10;;;9.30;99.90;;;;;;5068824;28;20207;-94
2023/12/25 10:04:58;;;;;;;8.25;2.22;;;9.30;99.90;;;;;;5086325;28;20044;-94
2023/12/25 10:07:24;;;;;;;9.05;2.03;;;9.30;99.90;;;;;;5050937;28;20091;-94
2023/12/25 10:09:53;;;;;;;8.48;2.00;;;9.30;99.90;;;;;;5052741;28;20431;-94
2023/12/25 10:12:19;;;;;;;10.05;1.83;;;9.30;99.90;;;;;;5069385;28;20055;-94
2023/12/25 10:14:46;;;;;;;9.25;1.90;;;9.30;99.90;;;;;;5052604;28;20277;-93
2023/12/25 10:17:12;;;;;;;9.25;1.90;;;9.40;99.90;;;;;;5071950;28;20086;-94
2023/12/25 10:19:52;;;;;;;9.50;1.80;;;9.30;99.90;;;;;;5051941;28;20024;-95
2023/12/25 10:22:32;;;;;;;9.48;2.47;;;9.40;99.90;;;;;;5064662;28;20079;-92
2023/12/25 10:25:11;;;;;;;7.70;2.30;;;9.40;99.90;;;;;;5049752;28;20093;-94
2023/12/25 10:27:42;;;;;;;8.73;2.15;;;9.30;99.90;;;;;;5082054;28;20100;-93
2023/12/25 10:30:19;;;;;;;8.27;1.90;;;9.40;99.90;;;;;;5063680;28;20282;-93
2023/12/25 10:32:49;;;;;;;10.50;2.00;;;9.40;99.90;;;;;;5081043;28;20040;-94
2023/12/25 10:35:19;;;;;;;7.28;2.17;;;9.40;99.90;;;;;;5038260;28;20029;-94
2023/12/25 10:37:46;;;;;;;9.73;2.10;;;9.40;99.90;;;;;;5068063;28;20128;-94
2023/12/25 10:40:20;;;;;;;8.23;2.40;;;9.40;99.90;;;;;;5048084;28;20040;-93
2023/12/25 10:42:51;;;;;;;9.95;1.98;;;9.30;99.90;;;;;;5064877;28;20032;-94
2023/12/25 10:45:23;;;;;;;9.77;2.20;;;9.40;99.90;;;;;;5062781;28;20272;-95
2023/12/25 10:47:54;;;;;;;8.88;2.30;;;9.40;99.90;;;;;;5074603;28;20043;-94
2023/12/25 10:50:21;;;;;;;8.27;2.10;;;9.40;99.90;;;;;;5061004;28;20025;-93
2023/12/25 10:52:50;;;;;;;4.85;1.63;;;9.40;99.90;;;;;;5048352;28;20048;-93
2023/12/25 10:55:24;;;;;;;9.13;2.60;;;9.40;99.90;;;;;;5076682;28;20285;-92
2023/12/25 10:57:52;;;;;;;9.02;2.22;;;9.50;99.90;;;;;;5062885;28;20227;-93
2023/12/25 11:00:20;;;;;;;9.43;2.10;;;9.50;99.90;;;;;;5041778;28;20037;-93
2023/12/25 11:02:52;;;;;;;7.97;2.30;;;9.60;99.90;;;;;;5063832;28;20024;-93
2023/12/25 11:05:19;;;;;;;10.05;2.38;;;9.60;99.90;;;;;;5081374;28;20021;-93
2023/12/25 11:07:45;;;;;;;8.30;2.15;;;9.70;99.90;;;;;;5027483;28;20048;-94
2023/12/25 11:10:12;;;;;;;11.20;2.22;;;9.80;99.90;;;;;;5079185;28;20044;-93
2023/12/25 11:12:38;;;;;;;9.23;2.05;;;9.90;99.90;;;;;;5079440;28;20032;-94
2023/12/25 11:15:05;;;;;;;10.90;2.50;;;9.90;99.90;;;;;;5079727;28;20074;-94
2023/12/25 11:17:32;;;;;;;11.45;2.40;;;10.00;99.90;;;;;;5062220;28;20285;-93
2023/12/25 11:20:02;;;;;;;9.30;2.05;;;10.10;99.90;;;;;;5064384;28;20051;-93
2023/12/25 11:22:29;;;;;;;10.05;2.05;;;10.00;99.90;;;;;;5061789;28;20032;-93
2023/12/25 11:25:00;;;;;;;11.48;2.60;;;10.00;99.90;;;;;;5064436;28;20101;-94
2023/12/25 11:27:29;;;;;;;11.43;2.20;;;10.00;99.90;;;;;;5062928;28;20052;-93
2023/12/25 11:30:03;;;;;;;9.02;2.08;;;10.00;99.90;;;;;;5074825;28;20103;-94
2023/12/25 11:32:32;;;;;;;11.55;2.50;;;10.00;99.90;;;;;;5081294;28;20048;-92
2023/12/25 11:34:58;;;;;;;7.68;2.00;;;9.90;99.90;;;;;;5044643;28;20037;-92
2023/12/25 11:37:24;;;;;;;8.80;2.10;;;9.90;99.90;;;;;;5061221;28;20079;-92
2023/12/25 11:40:01;;;;;;;11.73;3.05;;;9.90;99.90;;;;;;5062557;28;20017;-92
2023/12/25 11:42:27;;;;;;;11.15;2.55;;;9.90;99.90;;;;;;5083655;28;20044;-93
2023/12/25 11:45:00;;;;;;;11.25;2.50;;;9.80;99.90;;;;;;5065878;28;20032;-92
2023/12/25 11:47:43;;;;;;;12.35;2.72;;;9.90;99.90;;;;;;5080965;28;20143;-93
2023/12/25 11:50:09;;;;;;;9.23;2.10;;;9.70;99.90;;;;;;5058490;28;20032;-93
2023/12/25 11:52:53;;;;;;;12.55;3.08;;;9.80;99.90;;;;;;5068285;28;20046;-94
2023/12/25 11:55:21;;;;;;;14.82;2.95;;;9.80;99.90;;;;;;5094214;28;20058;-93
2023/12/25 11:57:47;;;;;;;11.95;2.65;;;9.80;99.90;;;;;;5066987;28;20028;-94
2023/12/25 12:00:31;;;;;;;13.32;2.72;;;9.80;99.90;;;;;;5087779;28;20035;-93
2023/12/25 12:02:57;;;;;;;12.35;2.72;;;9.80;99.90;;;;;;5100076;28;20028;-94
2023/12/25 12:05:23;;;;;;;10.90;2.53;;;9.80;99.90;;;;;;5044689;28;20037;-93
2023/12/25 12:07:49;;;;;;;14.55;2.42;;;9.80;99.90;;;;;;5085311;28;20039;-93
2023/12/25 12:10:15;;;;;;;12.05;2.15;;;9.70;99.90;;;;;;5067602;28;20074;-94
2023/12/25 12:12:42;;;;;;;10.82;2.60;;;9.70;99.90;;;;;;5070874;28;20024;-94
2023/12/25 12:15:08;;;;;;;11.45;2.70;;;9.70;99.90;;;;;;5044609;28;20052;-93
2023/12/25 12:17:38;;;;;;;8.65;2.10;;;9.70;99.90;;;;;;5053215;28;20038;-93
2023/12/25 12:20:05;;;;;;;10.18;2.30;;;9.70;99.90;;;;;;5072263;28;20035;-93
2023/12/25 12:22:32;;;;;;;9.25;2.20;;;9.70;99.90;;;;;;5056760;28;20032;-93
2023/12/25 12:25:12;;;;;;;8.77;1.90;;;9.60;99.90;;;;;;5079417;28;20073;-93
2023/12/25 12:27:38;;;;;;;10.93;2.38;;;9.70;99.90;;;;;;5068045;28;20047;-94
2023/12/25 12:30:09;;;;;;;10.52;2.28;;;9.70;99.90;;;;;;5091753;28;20258;-94
2023/12/25 12:32:35;;;;;;;10.18;2.72;;;9.50;99.90;;;;;;5056147;28;20040;-93
2023/12/25 12:35:03;;;;;;;12.05;2.30;;;9.60;99.90;;;;;;5062522;28;20024;-91
2023/12/25 12:37:29;;;;;;;10.05;2.30;;;9.60;99.90;;;;;;5064238;28;20131;-93
2023/12/25 12:40:03;;;;;;;13.70;2.60;;;9.60;99.90;;;;;;5034752;28;20020;-94
2023/12/25 12:42:32;;;;;;;9.63;2.60;;;9.70;99.90;;;;;;5086866;28;20059;-94
2023/12/25 12:44:59;;;;;;;10.82;2.65;;;9.50;99.90;;;;;;5051379;28;20038;-94